createdAt,value
2022-10-09T00:02:00.629Z,7.50
2022-10-09T00:06:03.518Z,7.60
2022-10-09T00:10:05.922Z,5.70
2022-10-09T00:14:07.822Z,7.90
2022-10-09T00:18:12.011Z,6.40
2022-10-09T00:22:13.841Z,6.10
2022-10-09T00:26:16.375Z,6.00
2022-10-09T00:30:18.266Z,5.50
2022-10-09T00:34:20.148Z,4.90
2022-10-09T00:38:21.968Z,6.40
2022-10-09T00:42:26.009Z,5.30
2022-10-09T00:46:47.914Z,5.10
2022-10-09T00:50:54.112Z,4.70
2022-10-09T00:54:56.923Z,5.20
2022-10-09T00:58:59.489Z,5.00
2022-10-09T01:03:01.403Z,6.20
2022-10-09T01:07:13.328Z,4.10
2022-10-09T01:12:00.367Z,4.60
2022-10-09T01:16:28.362Z,4.10
2022-10-09T01:20:39.178Z,4.10
2022-10-09T01:24:47.860Z,3.10
2022-10-09T01:28:58.978Z,3.10
2022-10-09T01:33:02.668Z,3.50
2022-10-09T01:37:07.208Z,2.80
2022-10-09T01:41:09.701Z,3.50
2022-10-09T01:45:13.882Z,3.60
2022-10-09T01:49:36.806Z,3.00
2022-10-09T01:53:39.644Z,3.80
2022-10-09T01:57:56.719Z,3.30
2022-10-09T02:02:00.312Z,4.10
2022-10-09T02:06:05.716Z,3.40
2022-10-09T02:10:08.966Z,3.40
2022-10-09T02:14:11.480Z,2.90
2022-10-09T02:18:18.836Z,2.80
2022-10-09T02:22:31.925Z,3.00
2022-10-09T02:26:34.169Z,3.60
2022-10-09T02:31:19.273Z,3.90
2022-10-09T02:35:21.570Z,3.10
2022-10-09T02:39:23.508Z,3.50
2022-10-09T02:43:25.528Z,3.60
2022-10-09T02:47:27.367Z,3.50
2022-10-09T02:51:29.197Z,5.10
2022-10-09T02:55:31.032Z,3.80
2022-10-09T02:59:32.961Z,3.90
2022-10-09T03:03:35.176Z,3.60
2022-10-09T03:07:37.246Z,3.80
2022-10-09T03:11:39.074Z,3.30
2022-10-09T03:15:41.009Z,3.30
2022-10-09T03:19:42.973Z,3.90
2022-10-09T03:23:45.191Z,3.30
2022-10-09T03:27:47.021Z,4.40
2022-10-09T03:31:53.330Z,3.70
2022-10-09T03:35:55.672Z,3.50
2022-10-09T03:39:58.408Z,3.20
2022-10-09T03:44:00.429Z,3.60
2022-10-09T03:48:02.624Z,3.30
2022-10-09T03:52:04.486Z,3.20
2022-10-09T03:56:06.525Z,3.40
2022-10-09T04:00:10.105Z,3.00
2022-10-09T04:04:11.937Z,3.60
2022-10-09T04:08:14.277Z,3.80
2022-10-09T04:12:16.203Z,4.40
2022-10-09T04:16:18.153Z,5.00
2022-10-09T04:20:21.038Z,4.20
2022-10-09T04:24:22.942Z,5.40
2022-10-09T04:28:26.490Z,3.80
2022-10-09T04:32:28.410Z,4.50
2022-10-09T04:36:30.289Z,4.80
2022-10-09T04:40:32.093Z,5.30
2022-10-09T04:44:33.960Z,5.20
2022-10-09T04:48:40.188Z,4.40
2022-10-09T04:52:42.030Z,5.90
2022-10-09T04:56:43.957Z,4.80
2022-10-09T05:00:46.273Z,3.70
2022-10-09T05:04:48.248Z,5.00
2022-10-09T05:08:51.024Z,4.40
2022-10-09T05:12:53.254Z,4.70
2022-10-09T05:17:12.888Z,7.30
2022-10-09T05:21:16.609Z,6.40
2022-10-09T05:25:18.469Z,8.50
2022-10-09T05:29:20.473Z,5.60
2022-10-09T05:33:22.454Z,7.30
2022-10-09T05:37:24.313Z,5.70
2022-10-09T05:41:26.434Z,6.00
2022-10-09T05:45:28.285Z,6.50
2022-10-09T05:49:30.157Z,5.70
2022-10-09T05:53:32.195Z,5.10
2022-10-09T05:57:34.111Z,4.80
2022-10-09T06:01:39.035Z,4.30
2022-10-09T06:05:40.908Z,4.30
2022-10-09T06:09:42.897Z,4.30
2022-10-09T06:13:45.658Z,6.50
2022-10-09T06:17:47.580Z,5.00
2022-10-09T06:21:50.218Z,5.10
2022-10-09T06:25:57.833Z,5.20
2022-10-09T06:29:59.652Z,5.70
2022-10-09T06:34:02.900Z,4.10
2022-10-09T06:38:04.845Z,3.90
2022-10-09T06:42:06.694Z,4.00
2022-10-09T06:46:23.363Z,5.20
2022-10-09T06:50:25.269Z,4.10
2022-10-09T06:54:27.162Z,3.60
2022-10-09T06:58:29.330Z,3.60
2022-10-09T07:02:34.104Z,3.20
2022-10-09T07:06:41.762Z,3.60
2022-10-09T07:10:43.585Z,4.30
2022-10-09T07:14:45.515Z,4.40
2022-10-09T07:18:47.765Z,4.30
2022-10-09T07:22:49.865Z,5.30
2022-10-09T07:26:54.693Z,4.60
2022-10-09T07:30:56.962Z,4.70
2022-10-09T07:34:58.856Z,5.50
2022-10-09T07:39:01.305Z,4.70
2022-10-09T07:43:03.167Z,6.00
2022-10-09T07:47:05.054Z,5.60
2022-10-09T07:51:21.994Z,5.70
2022-10-09T07:55:23.946Z,7.00
2022-10-09T07:59:25.817Z,4.90
2022-10-09T08:03:27.624Z,4.30
2022-10-09T08:07:34.821Z,4.40
2022-10-09T08:11:40.106Z,4.30
2022-10-09T08:15:43.207Z,3.40
2022-10-09T08:19:45.178Z,6.30
2022-10-09T08:23:47.101Z,6.30
2022-10-09T08:27:52.261Z,8.80
2022-10-09T08:31:54.148Z,7.10
2022-10-09T08:36:07.319Z,4.90
2022-10-09T08:40:16.817Z,5.90
2022-10-09T08:44:33.375Z,5.30
2022-10-09T08:48:43.911Z,5.50
2022-10-09T08:52:50.190Z,6.30
2022-10-09T08:56:52.678Z,4.30
2022-10-09T09:01:06.957Z,3.70
2022-10-09T09:05:36.449Z,3.70
2022-10-09T09:09:50.668Z,4.30
2022-10-09T09:14:21.543Z,4.20
2022-10-09T09:18:42.829Z,5.10
2022-10-09T09:22:48.557Z,9.40
2022-10-09T09:26:55.339Z,5.60
2022-10-09T09:31:12.781Z,4.60
2022-10-09T09:35:20.787Z,6.10
2022-10-09T09:40:08.327Z,8.10
2022-10-09T09:43:47.834Z,6.90
2022-10-09T09:48:04.175Z,4.70
2022-10-09T09:52:08.866Z,8.40
2022-10-09T09:56:10.876Z,5.20
2022-10-09T10:00:15.796Z,4.30
2022-10-09T10:04:20.233Z,2.60
2022-10-09T10:08:33.438Z,2.50
2022-10-09T10:13:02.421Z,3.00
2022-10-09T10:17:05.511Z,4.80
2022-10-09T10:21:12.392Z,2.70
2022-10-09T10:25:18.437Z,2.00
2022-10-09T10:29:27.127Z,2.60
2022-10-09T10:33:33.179Z,3.40
2022-10-09T10:37:46.687Z,3.50
2022-10-09T10:41:53.406Z,3.20
2022-10-09T10:46:56.967Z,3.20
2022-10-09T10:51:20.193Z,4.40
2022-10-09T10:55:52.582Z,4.00
2022-10-09T11:00:10.459Z,3.30
2022-10-09T11:04:32.926Z,4.10
2022-10-09T11:08:55.898Z,5.00
2022-10-09T11:13:03.393Z,5.10
2022-10-09T11:17:28.427Z,5.10
2022-10-09T11:21:55.032Z,8.30
2022-10-09T11:26:45.103Z,4.30
2022-10-09T11:31:02.919Z,4.80
2022-10-09T11:35:40.254Z,8.30
2022-10-09T11:39:43.136Z,7.50
2022-10-09T11:44:00.729Z,5.50
2022-10-09T11:48:12.442Z,6.00
2022-10-09T11:52:35.319Z,6.50
2022-10-09T11:56:37.304Z,5.20
2022-10-09T12:00:42.574Z,5.60
2022-10-09T12:05:01.078Z,6.90
2022-10-09T12:09:07.769Z,8.30
2022-10-09T12:13:29.645Z,4.80
2022-10-09T12:17:34.948Z,5.70
2022-10-09T12:21:45.405Z,10.80
2022-10-09T12:25:48.571Z,5.80
2022-10-09T12:29:55.495Z,5.30
2022-10-09T12:34:05.590Z,4.80
2022-10-09T12:38:26.741Z,3.50
2022-10-09T12:42:29.123Z,7.00
2022-10-09T12:46:35.842Z,6.90
2022-10-09T12:50:38.986Z,4.40
2022-10-09T12:54:43.856Z,4.20
2022-10-09T12:58:46.067Z,4.50
2022-10-09T13:02:48.507Z,5.30
2022-10-09T13:06:52.286Z,4.20
2022-10-09T13:10:55.069Z,4.40
2022-10-09T13:15:04.556Z,4.30
2022-10-09T13:19:23.980Z,4.40
2022-10-09T13:23:29.742Z,4.60
2022-10-09T13:27:35.015Z,4.80
2022-10-09T13:31:37.567Z,3.90
2022-10-09T13:35:39.548Z,4.40
2022-10-09T13:39:43.119Z,7.00
2022-10-09T13:43:45.733Z,5.90
2022-10-09T13:47:48.158Z,4.70
2022-10-09T13:51:50.439Z,5.20
2022-10-09T13:55:55.924Z,5.60
2022-10-09T13:59:59.772Z,8.60
2022-10-09T14:04:01.940Z,19.50
2022-10-09T14:08:04.380Z,8.90
2022-10-09T14:12:06.397Z,8.40
2022-10-09T14:16:10.538Z,11.70
2022-10-09T14:20:12.504Z,15.20
2022-10-09T14:24:15.064Z,13.50
2022-10-09T14:28:17.091Z,7.80
2022-10-09T14:32:19.095Z,14.60
2022-10-09T14:36:21.020Z,10.50
2022-10-09T14:40:22.913Z,19.30
2022-10-09T14:44:25.261Z,16.60
2022-10-09T14:48:27.082Z,15.40
2022-10-09T14:52:29.002Z,9.60
2022-10-09T14:56:31.224Z,7.40
2022-10-09T15:00:33.141Z,9.40
2022-10-09T15:04:35.039Z,10.50
2022-10-09T15:08:40.300Z,13.20
2022-10-09T15:12:42.129Z,79.50
2022-10-09T15:16:44.440Z,57.10
2022-10-09T15:20:46.550Z,27.90
2022-10-09T15:24:49.110Z,46.00
2022-10-09T15:28:51.125Z,29.60
2022-10-09T15:32:53.161Z,22.40
2022-10-09T15:36:55.067Z,19.80
2022-10-09T15:40:57.047Z,27.50
2022-10-09T15:44:59.573Z,126.50
2022-10-09T15:49:01.553Z,82.70
2022-10-09T15:53:10.086Z,56.20
2022-10-09T15:57:12.270Z,44.20
2022-10-09T16:01:16.902Z,35.70
2022-10-09T16:05:19.485Z,40.30
2022-10-09T16:09:21.577Z,45.90
2022-10-09T16:13:26.266Z,30.90
2022-10-09T16:17:28.077Z,23.30
2022-10-09T16:21:30.091Z,21.60
2022-10-09T16:25:32.644Z,24.10
2022-10-09T16:29:35.561Z,28.10
2022-10-09T16:33:37.623Z,31.80
2022-10-09T16:37:39.520Z,29.90
2022-10-09T16:41:42.173Z,33.30
2022-10-09T16:45:44.962Z,25.70
2022-10-09T16:49:47.005Z,20.10
2022-10-09T16:53:53.528Z,26.80
2022-10-09T16:57:55.997Z,21.90
2022-10-09T17:01:59.818Z,17.30
2022-10-09T17:06:05.896Z,13.70
2022-10-09T17:10:09.067Z,14.20
2022-10-09T17:14:11.647Z,7.60
2022-10-09T17:18:13.525Z,6.20
2022-10-09T17:22:15.367Z,7.40
2022-10-09T17:26:19.090Z,7.40
2022-10-09T17:30:21.484Z,15.70
2022-10-09T17:34:23.615Z,20.10
2022-10-09T17:38:25.735Z,24.30
2022-10-09T17:42:27.555Z,19.70
2022-10-09T17:46:30.259Z,18.70
2022-10-09T17:50:32.594Z,20.50
2022-10-09T17:54:34.567Z,18.40
2022-10-09T17:58:36.716Z,30.50
2022-10-09T18:02:38.645Z,34.70
2022-10-09T18:06:41.075Z,36.20
2022-10-09T18:10:43.571Z,21.00
2022-10-09T18:14:46.146Z,33.10
2022-10-09T18:18:48.652Z,30.00
2022-10-09T18:22:50.521Z,23.30
2022-10-09T18:26:59.461Z,23.30
2022-10-09T18:31:13.968Z,17.40
2022-10-09T18:35:16.298Z,14.00
2022-10-09T18:39:20.985Z,8.00
2022-10-09T18:43:22.942Z,9.50
2022-10-09T18:47:28.128Z,9.70
2022-10-09T18:51:31.399Z,13.00
2022-10-09T18:55:33.623Z,6.40
2022-10-09T18:59:37.633Z,6.70
2022-10-09T19:03:44.774Z,7.20
2022-10-09T19:07:49.661Z,13.40
2022-10-09T19:11:52.237Z,15.50
2022-10-09T19:15:58.200Z,16.90
2022-10-09T19:20:00.675Z,14.80
2022-10-09T19:24:05.642Z,12.30
2022-10-09T19:28:07.513Z,7.40
2022-10-09T19:32:09.417Z,12.50
2022-10-09T19:36:13.218Z,19.30
2022-10-09T19:40:15.176Z,25.40
2022-10-09T19:44:17.435Z,33.40
2022-10-09T19:48:19.960Z,42.20
2022-10-09T19:52:22.785Z,29.80
2022-10-09T19:56:27.130Z,33.10
2022-10-09T20:00:29.532Z,25.70
2022-10-09T20:04:31.749Z,32.40
2022-10-09T20:08:34.201Z,28.70
2022-10-09T20:12:36.128Z,24.80
2022-10-09T20:16:38.113Z,27.20
2022-10-09T20:20:46.414Z,27.40
2022-10-09T20:24:48.281Z,26.00
2022-10-09T20:28:53.452Z,25.60
2022-10-09T20:32:58.994Z,26.20
2022-10-09T20:37:01.247Z,24.20
2022-10-09T20:41:06.245Z,17.30
2022-10-09T20:45:08.372Z,16.60
2022-10-09T20:49:12.845Z,17.40
2022-10-09T20:53:16.248Z,17.70
2022-10-09T20:57:18.144Z,16.00
2022-10-09T21:01:21.046Z,17.70
2022-10-09T21:05:23.149Z,23.00
2022-10-09T21:09:27.482Z,19.00
2022-10-09T21:13:31.480Z,18.00
2022-10-09T21:17:33.380Z,19.40
2022-10-09T21:21:35.561Z,16.70
2022-10-09T21:25:38.059Z,14.10
2022-10-09T21:29:39.914Z,17.00
2022-10-09T21:33:42.216Z,12.70
2022-10-09T21:37:44.248Z,13.50
2022-10-09T21:41:46.289Z,13.10
2022-10-09T21:45:51.543Z,17.30
2022-10-09T21:49:53.505Z,17.20
2022-10-09T21:53:55.458Z,20.60
2022-10-09T21:57:57.384Z,18.20
2022-10-09T22:01:59.268Z,16.50
2022-10-09T22:06:06.119Z,18.20
2022-10-09T22:10:08.340Z,15.20
2022-10-09T22:14:10.168Z,18.80
2022-10-09T22:18:12.297Z,13.00
2022-10-09T22:22:14.319Z,14.60
2022-10-09T22:26:19.041Z,17.50
2022-10-09T22:30:20.837Z,17.30
2022-10-09T22:34:22.770Z,15.30
2022-10-09T22:38:24.621Z,16.90
2022-10-09T22:42:26.436Z,14.20
2022-10-09T22:46:31.754Z,15.10
2022-10-09T22:50:36.457Z,15.30
2022-10-09T22:54:38.268Z,14.20
2022-10-09T22:58:40.142Z,14.90
2022-10-09T23:02:41.968Z,14.10
2022-10-09T23:06:45.034Z,12.60
2022-10-09T23:10:46.830Z,14.20
2022-10-09T23:14:48.711Z,16.50
2022-10-09T23:18:50.994Z,21.20
2022-10-09T23:22:53.545Z,17.40
2022-10-09T23:26:55.401Z,17.50
2022-10-09T23:31:05.102Z,14.80
2022-10-09T23:35:07.327Z,12.30
2022-10-09T23:39:09.362Z,12.70
2022-10-09T23:43:11.141Z,12.20
2022-10-09T23:47:12.965Z,11.20
2022-10-09T23:51:15.315Z,11.20
2022-10-09T23:55:17.166Z,11.30
2022-10-09T23:59:19.591Z,9.20
